createdAt,value
2024-03-06T00:00:55.007Z,39.58
2024-03-06T00:03:21.608Z,35.33
2024-03-06T00:05:48.855Z,33.25
2024-03-06T00:08:15.873Z,39.88
2024-03-06T00:10:42.869Z,32.58
2024-03-06T00:13:09.568Z,39.95
2024-03-06T00:15:36.224Z,41.53
2024-03-06T00:18:04.549Z,35.63
2024-03-06T00:20:31.131Z,36.42
2024-03-06T00:22:57.918Z,33.25
2024-03-06T00:25:24.506Z,35.35
2024-03-06T00:27:51.126Z,35.50
2024-03-06T00:30:17.883Z,38.17
2024-03-06T00:32:44.654Z,45.72
2024-03-06T00:35:13.354Z,41.00
2024-03-06T00:37:40.266Z,34.88
2024-03-06T00:40:07.768Z,32.85
2024-03-06T00:42:34.541Z,36.17
2024-03-06T00:45:01.237Z,40.20
2024-03-06T00:47:28.457Z,42.42
2024-03-06T00:49:55.135Z,33.40
2024-03-06T00:52:21.845Z,36.22
2024-03-06T00:54:48.496Z,30.88
2024-03-06T00:57:15.100Z,37.50
2024-03-06T00:59:41.678Z,33.55
2024-03-06T01:02:08.360Z,41.75
2024-03-06T01:04:35.093Z,31.13
2024-03-06T01:07:01.750Z,34.28
2024-03-06T01:09:28.409Z,40.20
2024-03-06T01:11:55.025Z,33.85
2024-03-06T01:14:23.554Z,41.15
2024-03-06T01:16:50.172Z,37.90
2024-03-06T01:19:16.753Z,39.15
2024-03-06T01:21:43.432Z,38.33
2024-03-06T01:24:10.026Z,37.40
2024-03-06T01:26:36.711Z,36.03
2024-03-06T01:29:03.635Z,37.53
2024-03-06T01:31:30.396Z,39.40
2024-03-06T01:33:57.001Z,38.15
2024-03-06T01:36:23.654Z,40.33
2024-03-06T01:38:50.228Z,38.00
2024-03-06T01:41:17.033Z,41.35
2024-03-06T01:43:43.975Z,48.95
2024-03-06T01:46:10.616Z,46.72
2024-03-06T01:48:37.286Z,54.47
2024-03-06T01:51:06.036Z,48.95
2024-03-06T01:53:34.728Z,52.72
2024-03-06T01:56:02.586Z,53.83
2024-03-06T01:58:29.492Z,56.92
2024-03-06T02:00:56.479Z,58.63
2024-03-06T02:03:23.765Z,62.92
2024-03-06T02:05:51.770Z,66.47
2024-03-06T02:08:18.866Z,77.32
2024-03-06T02:10:46.487Z,78.80
2024-03-06T02:13:14.859Z,67.10
2024-03-06T02:15:42.048Z,66.47
2024-03-06T02:18:10.198Z,70.97
2024-03-06T02:20:41.075Z,78.88
2024-03-06T02:23:08.867Z,80.78
2024-03-06T02:25:35.763Z,77.25
2024-03-06T02:28:02.461Z,72.13
2024-03-06T02:30:31.553Z,76.03
2024-03-06T02:32:58.388Z,80.75
2024-03-06T02:35:25.108Z,77.80
2024-03-06T02:37:51.728Z,82.15
2024-03-06T02:40:18.433Z,80.43
2024-03-06T02:42:45.065Z,85.78
2024-03-06T02:45:11.656Z,85.13
2024-03-06T02:47:38.447Z,87.45
2024-03-06T02:50:06.324Z,86.45
2024-03-06T02:52:33.161Z,99.90
2024-03-06T02:55:01.142Z,91.18
2024-03-06T02:57:29.493Z,98.50
2024-03-06T02:59:59.843Z,93.55
2024-03-06T03:02:27.149Z,88.15
2024-03-06T03:04:54.066Z,94.88
2024-03-06T03:07:20.812Z,87.80
2024-03-06T03:09:48.228Z,89.43
2024-03-06T03:12:15.004Z,91.43
2024-03-06T03:14:42.380Z,88.97
2024-03-06T03:17:09.154Z,103.40
2024-03-06T03:19:36.222Z,99.35
2024-03-06T03:22:05.405Z,95.78
2024-03-06T03:24:32.231Z,90.22
2024-03-06T03:26:58.845Z,97.68
2024-03-06T03:29:25.396Z,113.50
2024-03-06T03:31:52.106Z,101.72
2024-03-06T03:34:18.750Z,104.85
2024-03-06T03:36:45.404Z,106.78
2024-03-06T03:39:18.387Z,108.32
2024-03-06T03:41:49.462Z,103.72
2024-03-06T03:44:17.890Z,108.10
2024-03-06T03:46:44.805Z,96.47
2024-03-06T03:49:11.820Z,105.18
2024-03-06T03:51:39.760Z,113.80
2024-03-06T03:54:07.346Z,105.63
2024-03-06T03:56:34.582Z,100.15
2024-03-06T03:59:01.282Z,116.65
2024-03-06T04:01:28.074Z,101.00
2024-03-06T04:03:54.695Z,108.65
2024-03-06T04:06:21.361Z,108.85
2024-03-06T04:08:48.048Z,112.45
2024-03-06T04:11:14.735Z,106.70
2024-03-06T04:13:41.439Z,119.20
2024-03-06T04:16:08.158Z,117.45
2024-03-06T04:18:35.325Z,113.25
2024-03-06T04:21:08.436Z,119.57
2024-03-06T04:23:35.262Z,108.05
2024-03-06T04:26:02.337Z,95.15
2024-03-06T04:28:29.308Z,104.88
2024-03-06T04:30:56.531Z,92.55
2024-03-06T04:33:23.246Z,98.75
2024-03-06T04:35:49.897Z,104.00
2024-03-06T04:38:16.769Z,105.93
2024-03-06T04:40:43.627Z,106.45
2024-03-06T04:43:10.545Z,105.93
2024-03-06T04:45:37.194Z,108.43
2024-03-06T04:48:04.271Z,103.07
2024-03-06T04:50:30.882Z,113.50
2024-03-06T04:52:57.701Z,105.97
2024-03-06T04:55:26.157Z,123.07
2024-03-06T04:57:56.878Z,105.68
2024-03-06T05:00:24.365Z,112.03
2024-03-06T06:00:30.651Z,115.32
2024-03-06T06:02:57.427Z,103.07
2024-03-06T06:05:25.313Z,111.90
2024-03-06T06:07:52.384Z,99.38
2024-03-06T06:10:21.708Z,101.95
2024-03-06T06:12:49.944Z,92.28
2024-03-06T06:15:16.870Z,115.65
2024-03-06T06:17:47.305Z,111.78
2024-03-06T06:20:18.146Z,74.35
2024-03-06T06:22:45.518Z,120.60
2024-03-06T06:25:12.500Z,108.07
2024-03-06T06:27:40.075Z,133.18
2024-03-06T06:30:10.100Z,117.97
2024-03-06T06:32:37.769Z,113.90
2024-03-06T06:35:06.108Z,112.00
2024-03-06T06:37:33.024Z,127.05
2024-03-06T06:40:00.625Z,123.97
2024-03-06T06:42:27.266Z,123.40
2024-03-06T06:44:54.190Z,121.68
2024-03-06T06:47:20.852Z,116.18
2024-03-06T06:49:47.456Z,119.18
2024-03-06T06:52:15.880Z,117.40
2024-03-06T06:54:42.467Z,128.30
2024-03-06T06:57:09.968Z,111.38
2024-03-06T06:59:36.568Z,119.82
2024-03-06T07:02:03.952Z,119.70
2024-03-06T07:04:30.552Z,104.85
2024-03-06T07:06:57.152Z,108.07
2024-03-06T07:09:23.764Z,110.45
2024-03-06T07:11:50.711Z,109.07
2024-03-06T07:14:17.379Z,107.13
2024-03-06T07:16:45.189Z,101.32
2024-03-06T07:19:12.774Z,100.53
2024-03-06T07:21:39.634Z,112.25
2024-03-06T07:24:06.525Z,105.88
2024-03-06T07:26:34.538Z,103.78
2024-03-06T07:29:01.797Z,100.47
2024-03-06T07:31:28.542Z,98.60
2024-03-06T07:33:55.098Z,95.72
2024-03-06T07:36:22.044Z,94.60
2024-03-06T07:38:48.728Z,98.57
2024-03-06T07:41:15.384Z,96.38
2024-03-06T07:43:42.498Z,100.13
2024-03-06T07:46:11.701Z,88.32
2024-03-06T07:48:39.460Z,86.38
2024-03-06T07:51:06.460Z,83.35
2024-03-06T07:53:33.150Z,94.10
2024-03-06T07:55:59.936Z,101.10
2024-03-06T07:58:26.689Z,92.40
2024-03-06T08:00:57.548Z,94.80
2024-03-06T08:03:25.435Z,77.40
2024-03-06T08:05:56.299Z,97.72
2024-03-06T08:08:23.464Z,95.47
2024-03-06T08:10:50.402Z,97.10
2024-03-06T08:13:18.884Z,99.93
2024-03-06T08:15:46.267Z,97.72
2024-03-06T08:18:14.582Z,97.50
2024-03-06T08:20:42.743Z,99.40
2024-03-06T08:23:11.369Z,85.65
2024-03-06T08:25:38.918Z,86.30
2024-03-06T08:28:06.619Z,78.28
2024-03-06T08:30:33.899Z,83.70
2024-03-06T08:33:00.914Z,76.80
2024-03-06T08:35:27.964Z,73.45
2024-03-06T08:37:54.700Z,86.32
2024-03-06T08:40:21.842Z,88.50
2024-03-06T08:42:49.810Z,87.70
2024-03-06T08:45:17.848Z,93.90
2024-03-06T08:47:45.660Z,91.53
2024-03-06T08:50:13.633Z,84.88
2024-03-06T08:52:40.570Z,86.43
2024-03-06T08:55:08.081Z,89.60
2024-03-06T08:57:35.783Z,87.25
2024-03-06T09:00:03.428Z,85.22
2024-03-06T09:02:31.854Z,79.97
2024-03-06T09:04:58.462Z,80.85
2024-03-06T09:07:25.152Z,76.80
2024-03-06T09:09:54.879Z,70.10
2024-03-06T09:12:21.620Z,69.90
2024-03-06T09:14:48.313Z,67.38
2024-03-06T09:17:15.889Z,69.85
2024-03-06T09:19:54.983Z,61.67
2024-03-06T09:22:29.819Z,59.75
2024-03-06T09:24:57.596Z,74.43
2024-03-06T09:27:24.428Z,78.78
2024-03-06T09:29:51.080Z,81.53
2024-03-06T09:32:20.096Z,72.10
2024-03-06T09:34:47.031Z,66.53
2024-03-06T09:37:13.750Z,68.07
2024-03-06T09:39:40.390Z,72.88
2024-03-06T09:42:07.804Z,68.20
2024-03-06T09:44:35.425Z,65.70
2024-03-06T09:47:07.373Z,64.05
2024-03-06T09:49:35.999Z,71.40
2024-03-06T09:52:05.020Z,62.92
2024-03-06T09:54:31.830Z,64.40
2024-03-06T09:57:00.074Z,63.25
2024-03-06T09:59:28.314Z,61.22
2024-03-06T10:01:59.470Z,62.97
2024-03-06T10:04:27.745Z,58.92
2024-03-06T10:06:56.227Z,54.90
2024-03-06T10:09:22.989Z,58.35
2024-03-06T10:11:50.226Z,57.38
2024-03-06T10:14:17.135Z,60.17
2024-03-06T10:16:53.167Z,59.03
2024-03-06T10:19:20.486Z,61.10
2024-03-06T10:21:52.097Z,61.90
2024-03-06T10:24:29.168Z,65.22
2024-03-06T10:26:59.192Z,60.22
2024-03-06T10:29:27.628Z,56.50
2024-03-06T10:31:57.581Z,63.28
2024-03-06T10:34:28.798Z,54.83
2024-03-06T10:37:14.177Z,58.92
2024-03-06T10:39:45.302Z,60.67
2024-03-06T10:42:14.382Z,57.58
2024-03-06T10:44:52.985Z,51.60
2024-03-06T10:47:20.548Z,50.95
2024-03-06T10:49:48.528Z,52.05
2024-03-06T10:52:17.873Z,53.13
2024-03-06T10:54:47.300Z,52.85
2024-03-06T10:57:15.489Z,53.65
2024-03-06T10:59:44.198Z,48.92
2024-03-06T11:02:13.833Z,51.10
2024-03-06T11:04:41.794Z,52.97
2024-03-06T11:07:11.908Z,49.38
2024-03-06T11:09:40.915Z,51.55
2024-03-06T11:12:08.433Z,49.13
2024-03-06T11:14:39.715Z,57.17
2024-03-06T11:17:09.646Z,53.38
2024-03-06T11:20:01.843Z,53.40
2024-03-06T11:23:00.830Z,53.60
2024-03-06T11:25:47.165Z,52.17
2024-03-06T11:28:31.013Z,47.50
2024-03-06T11:31:06.570Z,44.72
2024-03-06T11:33:44.936Z,44.40
2024-03-06T11:36:21.762Z,44.63
2024-03-06T11:38:49.442Z,43.13
2024-03-06T11:41:16.191Z,41.30
2024-03-06T11:43:44.027Z,40.97
2024-03-06T11:46:11.566Z,38.50
2024-03-06T11:48:39.706Z,41.03
2024-03-06T11:51:06.698Z,42.10
2024-03-06T11:53:38.347Z,42.33
2024-03-06T11:56:11.117Z,39.75
2024-03-06T11:58:39.008Z,41.85
2024-03-06T12:01:05.913Z,42.90
2024-03-06T12:03:32.833Z,52.22
2024-03-06T12:06:00.068Z,50.67
2024-03-06T12:08:28.177Z,44.83
2024-03-06T12:10:56.730Z,43.00
2024-03-06T12:13:23.755Z,40.00
2024-03-06T12:15:50.486Z,47.55
2024-03-06T12:18:20.508Z,61.22
2024-03-06T12:20:47.399Z,54.10
2024-03-06T12:23:30.316Z,48.00
2024-03-06T12:26:11.298Z,44.45
2024-03-06T12:28:39.454Z,43.53
2024-03-06T12:31:08.851Z,44.08
2024-03-06T12:33:35.914Z,43.17
2024-03-06T12:36:07.875Z,44.40
2024-03-06T12:38:34.768Z,48.50
2024-03-06T12:41:01.545Z,48.05
2024-03-06T12:43:29.906Z,43.28
2024-03-06T12:45:58.701Z,38.03
2024-03-06T12:48:26.985Z,43.33
2024-03-06T12:50:55.361Z,41.42
2024-03-06T12:53:23.307Z,39.47
2024-03-06T12:55:50.079Z,43.70
2024-03-06T12:58:16.793Z,37.42
2024-03-06T13:00:43.489Z,37.92
2024-03-06T13:03:13.607Z,42.28
2024-03-06T13:05:40.310Z,39.50
2024-03-06T13:08:07.226Z,37.47
2024-03-06T13:10:33.901Z,36.05
2024-03-06T13:13:00.602Z,32.85
2024-03-06T13:15:27.193Z,39.85
2024-03-06T13:17:53.888Z,30.10
2024-03-06T13:20:20.805Z,33.33
2024-03-06T13:22:47.404Z,33.00
2024-03-06T13:25:14.180Z,33.22
2024-03-06T13:27:40.842Z,31.73
2024-03-06T13:30:09.288Z,35.45
2024-03-06T13:32:36.238Z,29.63
2024-03-06T13:35:03.492Z,28.10
2024-03-06T13:37:30.299Z,30.00
2024-03-06T13:40:01.577Z,28.52
2024-03-06T13:44:55.268Z,26.35
2024-03-06T13:47:22.012Z,29.02
2024-03-06T13:49:48.685Z,22.42
2024-03-06T13:52:16.497Z,23.67
2024-03-06T13:54:43.772Z,21.52
2024-03-06T13:57:10.821Z,21.65
2024-03-06T13:59:38.970Z,20.10
2024-03-06T14:02:07.789Z,20.67
2024-03-06T14:04:34.902Z,22.45
2024-03-06T14:07:01.595Z,23.42
2024-03-06T14:09:28.312Z,24.98
2024-03-06T14:11:55.520Z,25.83
2024-03-06T14:14:22.316Z,29.30
2024-03-06T14:16:49.137Z,30.40
2024-03-06T14:19:15.919Z,29.63
2024-03-06T14:21:43.823Z,29.83
2024-03-06T14:24:10.484Z,25.45
2024-03-06T14:26:38.035Z,26.23
2024-03-06T14:29:08.436Z,29.70
2024-03-06T14:31:35.768Z,25.70
2024-03-06T14:34:06.172Z,27.63
2024-03-06T14:36:35.334Z,23.45
2024-03-06T14:39:02.101Z,23.90
2024-03-06T14:41:28.850Z,27.13
2024-03-06T14:43:55.640Z,31.77
2024-03-06T14:46:22.361Z,27.55
2024-03-06T14:48:48.981Z,23.42
2024-03-06T14:51:16.410Z,27.58
2024-03-06T14:53:43.155Z,24.63
2024-03-06T14:56:12.060Z,26.98
2024-03-06T14:58:39.128Z,25.98
2024-03-06T15:01:06.241Z,25.55
2024-03-06T15:03:33.075Z,25.77
2024-03-06T15:05:59.985Z,22.10
2024-03-06T15:08:26.701Z,28.25
2024-03-06T15:10:55.185Z,24.27
2024-03-06T15:13:23.909Z,22.33
2024-03-06T15:15:51.691Z,23.77
2024-03-06T15:18:18.848Z,24.75
2024-03-06T15:20:45.899Z,26.05
2024-03-06T15:23:12.716Z,27.08
2024-03-06T15:25:39.685Z,24.70
2024-03-06T15:28:06.453Z,27.50
2024-03-06T15:30:35.418Z,32.28
2024-03-06T15:33:04.204Z,27.20
2024-03-06T15:35:31.230Z,26.52
2024-03-06T15:37:57.999Z,31.27
2024-03-06T15:40:26.016Z,29.42
2024-03-06T15:42:56.338Z,28.95
2024-03-06T15:45:24.107Z,26.27
2024-03-06T15:47:50.918Z,26.88
2024-03-06T15:50:17.802Z,25.98
2024-03-06T15:52:44.472Z,24.90
2024-03-06T15:55:11.190Z,28.75
2024-03-06T15:57:38.307Z,23.48
2024-03-06T16:00:14.488Z,23.45
2024-03-06T16:02:42.452Z,22.30
2024-03-06T16:05:09.669Z,25.90
2024-03-06T16:07:42.086Z,28.15
2024-03-06T16:10:11.815Z,26.58
2024-03-06T16:12:38.448Z,31.80
2024-03-06T16:15:05.750Z,29.02
2024-03-06T16:17:32.617Z,29.08
2024-03-06T16:19:59.371Z,27.50
2024-03-06T16:22:26.295Z,26.02
2024-03-06T16:24:53.147Z,27.98
2024-03-06T16:27:20.132Z,30.20
2024-03-06T16:29:49.152Z,26.75
2024-03-06T16:32:15.906Z,32.75
2024-03-06T16:34:42.637Z,28.67
2024-03-06T16:37:09.518Z,27.00
2024-03-06T16:39:36.337Z,28.42
2024-03-06T16:42:04.015Z,31.90
2024-03-06T16:44:31.574Z,31.77
2024-03-06T16:46:58.203Z,28.55
2024-03-06T16:49:25.725Z,30.73
2024-03-06T16:51:53.202Z,32.28
2024-03-06T16:54:19.806Z,37.83
2024-03-06T16:56:46.515Z,31.98
2024-03-06T16:59:14.446Z,30.25
2024-03-06T17:01:42.422Z,31.15
2024-03-06T17:04:09.204Z,29.30
2024-03-06T17:06:36.251Z,28.55
2024-03-06T17:09:02.943Z,30.20
2024-03-06T17:11:29.871Z,28.48
2024-03-06T17:13:56.606Z,33.25
2024-03-06T17:16:23.239Z,31.60
2024-03-06T17:18:49.935Z,29.30
2024-03-06T17:21:16.665Z,30.45
2024-03-06T17:23:45.014Z,30.88
2024-03-06T17:26:13.277Z,29.67
2024-03-06T17:28:41.359Z,30.90
2024-03-06T17:31:08.664Z,28.60
2024-03-06T17:33:35.314Z,29.45
2024-03-06T17:36:02.010Z,28.38
2024-03-06T17:38:30.776Z,32.20
2024-03-06T17:40:57.452Z,30.70
2024-03-06T17:43:24.144Z,32.30
2024-03-06T17:45:50.826Z,36.95
2024-03-06T17:48:18.485Z,31.77
2024-03-06T17:50:47.564Z,31.77
2024-03-06T17:53:14.805Z,33.08
2024-03-06T17:55:42.078Z,32.00
2024-03-06T17:58:09.138Z,35.00
2024-03-06T18:00:37.796Z,29.48
2024-03-06T18:03:04.992Z,29.67
2024-03-06T18:05:31.820Z,31.98
2024-03-06T18:07:58.429Z,29.38
2024-03-06T18:10:25.129Z,30.33
2024-03-06T18:12:51.905Z,29.05
2024-03-06T18:15:19.239Z,34.35
2024-03-06T18:17:45.944Z,33.13
2024-03-06T18:20:13.025Z,32.15
2024-03-06T18:22:39.919Z,33.83
2024-03-06T18:25:07.667Z,36.95
2024-03-06T18:27:35.174Z,36.22
2024-03-06T18:30:03.914Z,33.13
2024-03-06T18:32:30.685Z,34.28
2024-03-06T18:34:59.022Z,39.80
2024-03-06T18:37:26.084Z,35.60
2024-03-06T18:39:54.321Z,31.25
2024-03-06T18:42:22.200Z,36.35
2024-03-06T18:44:49.807Z,40.10
2024-03-06T18:47:16.877Z,33.75
2024-03-06T18:49:43.628Z,35.15
2024-03-06T18:52:10.748Z,34.42
2024-03-06T18:54:43.051Z,33.80
2024-03-06T18:57:10.070Z,31.17
2024-03-06T18:59:38.784Z,35.42
2024-03-06T19:02:07.601Z,38.85
2024-03-06T19:04:36.809Z,27.52
2024-03-06T19:07:04.934Z,38.88
2024-03-06T19:09:31.539Z,37.55
2024-03-06T19:11:58.372Z,33.90
2024-03-06T19:14:25.079Z,36.22
2024-03-06T19:16:52.224Z,31.30
2024-03-06T19:19:19.157Z,28.48
2024-03-06T19:21:45.962Z,27.95
2024-03-06T19:24:12.638Z,30.75
2024-03-06T19:26:39.337Z,32.58
2024-03-06T19:29:06.136Z,27.20
2024-03-06T19:31:36.001Z,29.75
2024-03-06T19:34:03.681Z,27.98
2024-03-06T19:36:30.690Z,28.75
2024-03-06T19:38:57.309Z,27.17
2024-03-06T19:41:24.554Z,33.28
2024-03-06T19:43:51.297Z,26.48
2024-03-06T19:46:18.042Z,26.35
2024-03-06T19:48:44.758Z,25.17
2024-03-06T19:51:13.423Z,30.10
2024-03-06T19:53:41.618Z,25.63
2024-03-06T19:56:11.432Z,24.75
2024-03-06T19:58:38.366Z,27.70
2024-03-06T20:01:05.118Z,26.25
2024-03-06T20:03:31.765Z,25.48
2024-03-06T20:05:58.641Z,25.67
2024-03-06T20:08:26.268Z,26.65
2024-03-06T20:10:53.222Z,27.52
2024-03-06T20:13:19.984Z,29.60
2024-03-06T20:15:46.775Z,26.50
2024-03-06T20:18:13.646Z,24.77
2024-03-06T20:20:41.893Z,25.30
2024-03-06T20:23:11.082Z,24.83
2024-03-06T20:25:42.183Z,28.30
2024-03-06T20:28:10.237Z,31.08
2024-03-06T20:30:47.751Z,28.25
2024-03-06T20:33:14.833Z,26.40
2024-03-06T20:35:41.673Z,26.60
2024-03-06T20:38:13.681Z,29.77
2024-03-06T20:40:43.477Z,31.55
2024-03-06T20:43:10.313Z,33.60
2024-03-06T20:45:39.872Z,31.52
2024-03-06T20:48:08.390Z,33.30
2024-03-06T20:50:36.269Z,32.85
2024-03-06T20:53:03.706Z,32.17
2024-03-06T20:55:30.738Z,35.55
2024-03-06T20:57:57.889Z,34.08
2024-03-06T21:00:24.673Z,31.60
2024-03-06T21:02:51.414Z,37.97
2024-03-06T21:05:18.229Z,35.45
2024-03-06T21:07:44.940Z,34.40
2024-03-06T21:10:15.782Z,37.67
2024-03-06T21:12:48.927Z,30.73
2024-03-06T21:15:16.791Z,38.95
2024-03-06T21:17:44.535Z,48.35
2024-03-06T21:20:14.861Z,45.00
2024-03-06T21:22:43.070Z,49.78
2024-03-06T21:25:11.096Z,52.15
2024-03-06T21:27:38.827Z,57.60
2024-03-06T21:30:09.132Z,49.28
2024-03-06T21:32:39.179Z,50.95
2024-03-06T21:35:06.190Z,57.33
2024-03-06T21:37:33.597Z,59.55
2024-03-06T21:40:00.656Z,54.13
2024-03-06T21:42:33.903Z,55.58
2024-03-06T21:45:00.758Z,50.60
2024-03-06T21:47:27.881Z,52.50
2024-03-06T21:49:54.676Z,44.60
2024-03-06T21:52:21.509Z,51.58
2024-03-06T21:54:48.162Z,59.30
2024-03-06T21:57:16.458Z,58.08
2024-03-06T21:59:43.290Z,43.97
2024-03-06T22:02:11.752Z,55.78
2024-03-06T22:04:38.753Z,48.70
2024-03-06T22:07:05.541Z,46.25
2024-03-06T22:09:33.143Z,44.78
2024-03-06T22:12:01.984Z,57.35
2024-03-06T22:14:29.099Z,51.75
2024-03-06T22:16:55.780Z,50.40
2024-03-06T22:19:25.478Z,54.13
2024-03-06T22:21:52.356Z,51.22
2024-03-06T22:24:19.013Z,41.50
2024-03-06T22:26:45.833Z,44.55
2024-03-06T22:29:12.531Z,45.97
2024-03-06T22:31:39.426Z,45.08
2024-03-06T22:34:07.815Z,46.40
2024-03-06T22:36:34.542Z,50.85
2024-03-06T22:39:01.734Z,44.97
2024-03-06T22:41:28.709Z,53.17
2024-03-06T22:43:55.964Z,43.83
2024-03-06T22:46:23.800Z,45.05
2024-03-06T22:48:51.152Z,48.33
2024-03-06T22:51:18.816Z,54.10
2024-03-06T22:53:46.181Z,53.55
2024-03-06T22:56:14.182Z,48.28
2024-03-06T22:58:41.258Z,53.88
2024-03-06T23:01:08.032Z,48.30
2024-03-06T23:03:36.157Z,49.83
2024-03-06T23:06:03.634Z,48.42
2024-03-06T23:08:30.356Z,55.97
2024-03-06T23:10:59.975Z,56.17
2024-03-06T23:13:26.773Z,52.47
2024-03-06T23:15:53.812Z,47.42
2024-03-06T23:18:21.334Z,53.67
2024-03-06T23:20:49.903Z,59.88
2024-03-06T23:23:16.900Z,53.85
2024-03-06T23:25:43.719Z,58.58
2024-03-06T23:28:11.887Z,54.13
2024-03-06T23:30:38.998Z,57.25
2024-03-06T23:33:07.084Z,62.08
2024-03-06T23:35:33.948Z,54.17
2024-03-06T23:38:00.645Z,56.88
2024-03-06T23:40:30.528Z,60.95
2024-03-06T23:42:58.146Z,54.03
2024-03-06T23:45:25.121Z,59.42
2024-03-06T23:47:52.579Z,58.20
2024-03-06T23:50:21.088Z,61.72
2024-03-06T23:52:49.130Z,67.78
2024-03-06T23:55:16.947Z,70.65
2024-03-06T23:57:43.734Z,70.80
